sensor_id;sensor_type;location;lat;lon;timestamp;P1;durP1;ratioP1;P2;durP2;ratioP2
12587;SDS011;6359;51.450;7.346;2023-02-01T00:00:58;18.25;;;10.13;;
12587;SDS011;6359;51.450;7.346;2023-02-01T00:03:25;32.10;;;11.13;;
12587;SDS011;6359;51.450;7.346;2023-02-01T00:05:55;27.88;;;10.00;;
12587;SDS011;6359;51.450;7.346;2023-02-01T00:08:23;23.52;;;9.55;;
12587;SDS011;6359;51.450;7.346;2023-02-01T00:10:57;19.88;;;9.48;;
12587;SDS011;6359;51.450;7.346;2023-02-01T00:13:27;23.88;;;8.00;;
12587;SDS011;6359;51.450;7.346;2023-02-01T00:15:54;25.08;;;8.88;;
12587;SDS011;6359;51.450;7.346;2023-02-01T00:18:21;24.00;;;8.15;;
12587;SDS011;6359;51.450;7.346;2023-02-01T00:20:48;23.05;;;7.95;;
12587;SDS011;6359;51.450;7.346;2023-02-01T00:23:15;19.45;;;7.03;;
12587;SDS011;6359;51.450;7.346;2023-02-01T00:25:45;20.25;;;7.68;;
12587;SDS011;6359;51.450;7.346;2023-02-01T00:28:12;17.10;;;7.13;;
12587;SDS011;6359;51.450;7.346;2023-02-01T00:30:40;16.27;;;6.20;;
12587;SDS011;6359;51.450;7.346;2023-02-01T00:33:08;20.60;;;6.25;;
12587;SDS011;6359;51.450;7.346;2023-02-01T00:35:35;17.48;;;6.35;;
12587;SDS011;6359;51.450;7.346;2023-02-01T00:38:02;14.90;;;5.72;;
12587;SDS011;6359;51.450;7.346;2023-02-01T00:40:29;11.07;;;3.83;;
12587;SDS011;6359;51.450;7.346;2023-02-01T00:42:56;19.77;;;5.35;;
12587;SDS011;6359;51.450;7.346;2023-02-01T00:45:24;17.27;;;4.90;;
12587;SDS011;6359;51.450;7.346;2023-02-01T00:47:52;20.55;;;4.88;;
12587;SDS011;6359;51.450;7.346;2023-02-01T00:50:19;22.02;;;5.38;;
12587;SDS011;6359;51.450;7.346;2023-02-01T00:52:46;19.52;;;4.88;;
12587;SDS011;6359;51.450;7.346;2023-02-01T00:55:13;17.98;;;4.80;;
12587;SDS011;6359;51.450;7.346;2023-02-01T00:57:40;13.88;;;4.43;;
12587;SDS011;6359;51.450;7.346;2023-02-01T01:00:07;12.98;;;4.50;;
12587;SDS011;6359;51.450;7.346;2023-02-01T01:02:35;16.80;;;4.65;;
12587;SDS011;6359;51.450;7.346;2023-02-01T01:05:04;12.90;;;4.22;;
12587;SDS011;6359;51.450;7.346;2023-02-01T01:07:31;12.18;;;4.63;;
12587;SDS011;6359;51.450;7.346;2023-02-01T01:09:58;17.33;;;4.40;;
12587;SDS011;6359;51.450;7.346;2023-02-01T01:12:25;16.35;;;4.93;;
12587;SDS011;6359;51.450;7.346;2023-02-01T01:14:52;13.50;;;4.25;;
12587;SDS011;6359;51.450;7.346;2023-02-01T01:17:19;12.27;;;3.90;;
12587;SDS011;6359;51.450;7.346;2023-02-01T01:19:46;15.85;;;4.03;;
12587;SDS011;6359;51.450;7.346;2023-02-01T01:22:14;12.50;;;3.95;;
12587;SDS011;6359;51.450;7.346;2023-02-01T01:24:41;17.77;;;4.13;;
12587;SDS011;6359;51.450;7.346;2023-02-01T01:27:08;15.25;;;4.68;;
12587;SDS011;6359;51.450;7.346;2023-02-01T01:29:35;16.40;;;3.75;;
12587;SDS011;6359;51.450;7.346;2023-02-01T01:32:02;18.45;;;4.20;;
12587;SDS011;6359;51.450;7.346;2023-02-01T01:34:30;14.70;;;4.03;;
12587;SDS011;6359;51.450;7.346;2023-02-01T01:36:57;19.98;;;4.70;;
12587;SDS011;6359;51.450;7.346;2023-02-01T01:39:25;18.02;;;4.68;;
12587;SDS011;6359;51.450;7.346;2023-02-01T01:41:52;12.88;;;4.18;;
12587;SDS011;6359;51.450;7.346;2023-02-01T01:47:25;15.77;;;4.78;;
12587;SDS011;6359;51.450;7.346;2023-02-01T01:49:57;18.02;;;5.45;;
12587;SDS011;6359;51.450;7.346;2023-02-01T01:52:24;16.98;;;5.20;;
12587;SDS011;6359;51.450;7.346;2023-02-01T01:54:53;21.13;;;5.30;;
12587;SDS011;6359;51.450;7.346;2023-02-01T01:57:22;14.73;;;5.38;;
12587;SDS011;6359;51.450;7.346;2023-02-01T01:59:53;21.83;;;5.85;;
12587;SDS011;6359;51.450;7.346;2023-02-01T02:02:26;19.80;;;5.57;;
12587;SDS011;6359;51.450;7.346;2023-02-01T02:04:54;17.45;;;5.13;;
12587;SDS011;6359;51.450;7.346;2023-02-01T02:07:21;12.25;;;5.35;;
12587;SDS011;6359;51.450;7.346;2023-02-01T02:09:54;14.27;;;4.90;;
12587;SDS011;6359;51.450;7.346;2023-02-01T02:12:21;16.75;;;5.93;;
12587;SDS011;6359;51.450;7.346;2023-02-01T02:14:48;21.45;;;5.00;;
12587;SDS011;6359;51.450;7.346;2023-02-01T02:17:23;15.07;;;5.38;;
12587;SDS011;6359;51.450;7.346;2023-02-01T02:20:10;22.23;;;6.05;;
12587;SDS011;6359;51.450;7.346;2023-02-01T02:28:57;21.60;;;4.97;;
12587;SDS011;6359;51.450;7.346;2023-02-01T02:32:05;22.10;;;5.20;;
12587;SDS011;6359;51.450;7.346;2023-02-01T02:34:52;14.93;;;4.45;;
12587;SDS011;6359;51.450;7.346;2023-02-01T02:37:23;20.27;;;5.50;;
12587;SDS011;6359;51.450;7.346;2023-02-01T02:40:01;12.07;;;3.95;;
12587;SDS011;6359;51.450;7.346;2023-02-01T02:42:36;16.92;;;4.32;;
12587;SDS011;6359;51.450;7.346;2023-02-01T02:45:27;14.68;;;4.40;;
12587;SDS011;6359;51.450;7.346;2023-02-01T02:48:19;18.20;;;4.82;;
12587;SDS011;6359;51.450;7.346;2023-02-01T02:50:54;12.45;;;4.20;;
12587;SDS011;6359;51.450;7.346;2023-02-01T02:53:46;12.95;;;3.63;;
12587;SDS011;6359;51.450;7.346;2023-02-01T02:56:35;10.43;;;3.70;;
12587;SDS011;6359;51.450;7.346;2023-02-01T02:59:21;14.60;;;3.63;;
12587;SDS011;6359;51.450;7.346;2023-02-01T03:02:08;18.17;;;4.45;;
12587;SDS011;6359;51.450;7.346;2023-02-01T03:04:53;15.55;;;5.28;;
12587;SDS011;6359;51.450;7.346;2023-02-01T03:10:24;14.68;;;4.47;;
12587;SDS011;6359;51.450;7.346;2023-02-01T03:13:00;20.77;;;4.55;;
12587;SDS011;6359;51.450;7.346;2023-02-01T03:15:31;12.15;;;3.50;;
12587;SDS011;6359;51.450;7.346;2023-02-01T03:18:02;16.65;;;3.90;;
12587;SDS011;6359;51.450;7.346;2023-02-01T03:20:37;22.02;;;4.43;;
12587;SDS011;6359;51.450;7.346;2023-02-01T03:23:10;11.75;;;3.20;;
12587;SDS011;6359;51.450;7.346;2023-02-01T03:25:40;11.77;;;4.00;;
12587;SDS011;6359;51.450;7.346;2023-02-01T03:28:08;15.50;;;3.90;;
12587;SDS011;6359;51.450;7.346;2023-02-01T03:30:36;18.70;;;3.67;;
12587;SDS011;6359;51.450;7.346;2023-02-01T03:33:08;17.50;;;3.47;;
12587;SDS011;6359;51.450;7.346;2023-02-01T03:35:48;17.88;;;3.60;;
12587;SDS011;6359;51.450;7.346;2023-02-01T03:38:22;9.43;;;2.58;;
12587;SDS011;6359;51.450;7.346;2023-02-01T03:40:55;18.67;;;3.35;;
12587;SDS011;6359;51.450;7.346;2023-02-01T03:43:27;11.60;;;2.70;;
12587;SDS011;6359;51.450;7.346;2023-02-01T03:46:00;17.20;;;3.97;;
12587;SDS011;6359;51.450;7.346;2023-02-01T03:48:31;11.00;;;3.35;;
12587;SDS011;6359;51.450;7.346;2023-02-01T03:51:00;14.43;;;3.00;;
12587;SDS011;6359;51.450;7.346;2023-02-01T03:53:33;17.60;;;3.58;;
12587;SDS011;6359;51.450;7.346;2023-02-01T03:56:02;10.82;;;3.50;;
12587;SDS011;6359;51.450;7.346;2023-02-01T03:58:30;10.27;;;2.85;;
12587;SDS011;6359;51.450;7.346;2023-02-01T04:00:58;17.65;;;3.60;;
12587;SDS011;6359;51.450;7.346;2023-02-01T04:03:26;13.75;;;3.00;;
12587;SDS011;6359;51.450;7.346;2023-02-01T04:05:54;14.27;;;3.72;;
12587;SDS011;6359;51.450;7.346;2023-02-01T04:08:21;15.57;;;4.07;;
12587;SDS011;6359;51.450;7.346;2023-02-01T04:10:51;10.27;;;2.90;;
12587;SDS011;6359;51.450;7.346;2023-02-01T04:13:18;13.18;;;3.10;;
12587;SDS011;6359;51.450;7.346;2023-02-01T04:15:46;15.57;;;3.65;;
12587;SDS011;6359;51.450;7.346;2023-02-01T04:18:14;17.42;;;3.38;;
12587;SDS011;6359;51.450;7.346;2023-02-01T04:20:42;19.73;;;3.13;;
12587;SDS011;6359;51.450;7.346;2023-02-01T04:23:10;11.85;;;3.45;;
12587;SDS011;6359;51.450;7.346;2023-02-01T04:25:37;19.30;;;3.88;;
12587;SDS011;6359;51.450;7.346;2023-02-01T04:28:05;20.38;;;3.25;;
12587;SDS011;6359;51.450;7.346;2023-02-01T04:30:33;17.70;;;3.78;;
12587;SDS011;6359;51.450;7.346;2023-02-01T04:33:00;13.20;;;3.75;;
12587;SDS011;6359;51.450;7.346;2023-02-01T04:35:28;22.67;;;3.78;;
12587;SDS011;6359;51.450;7.346;2023-02-01T04:37:55;16.42;;;3.63;;
12587;SDS011;6359;51.450;7.346;2023-02-01T04:40:22;11.43;;;3.17;;
12587;SDS011;6359;51.450;7.346;2023-02-01T04:42:49;10.20;;;3.25;;
12587;SDS011;6359;51.450;7.346;2023-02-01T04:45:18;13.73;;;3.05;;
12587;SDS011;6359;51.450;7.346;2023-02-01T04:47:45;15.73;;;3.85;;
12587;SDS011;6359;51.450;7.346;2023-02-01T04:50:13;12.88;;;3.60;;
12587;SDS011;6359;51.450;7.346;2023-02-01T04:52:41;19.90;;;4.25;;
12587;SDS011;6359;51.450;7.346;2023-02-01T04:55:10;12.93;;;3.13;;
12587;SDS011;6359;51.450;7.346;2023-02-01T04:57:38;19.70;;;4.40;;
12587;SDS011;6359;51.450;7.346;2023-02-01T05:00:06;17.80;;;4.10;;
12587;SDS011;6359;51.450;7.346;2023-02-01T05:02:36;14.15;;;4.05;;
12587;SDS011;6359;51.450;7.346;2023-02-01T05:05:03;14.73;;;4.47;;
12587;SDS011;6359;51.450;7.346;2023-02-01T05:07:30;21.33;;;3.67;;
12587;SDS011;6359;51.450;7.346;2023-02-01T05:09:57;13.13;;;3.80;;
12587;SDS011;6359;51.450;7.346;2023-02-01T05:12:24;17.67;;;4.07;;
12587;SDS011;6359;51.450;7.346;2023-02-01T05:15:09;25.70;;;4.28;;
12587;SDS011;6359;51.450;7.346;2023-02-01T05:17:37;19.27;;;4.50;;
12587;SDS011;6359;51.450;7.346;2023-02-01T05:20:06;22.65;;;4.60;;
12587;SDS011;6359;51.450;7.346;2023-02-01T05:22:33;17.27;;;4.18;;
12587;SDS011;6359;51.450;7.346;2023-02-01T05:25:00;19.27;;;4.22;;
12587;SDS011;6359;51.450;7.346;2023-02-01T05:27:28;19.60;;;3.42;;
12587;SDS011;6359;51.450;7.346;2023-02-01T05:29:56;13.52;;;3.17;;
12587;SDS011;6359;51.450;7.346;2023-02-01T05:32:22;18.00;;;3.53;;
12587;SDS011;6359;51.450;7.346;2023-02-01T05:34:51;18.70;;;3.17;;
12587;SDS011;6359;51.450;7.346;2023-02-01T05:37:18;14.27;;;3.63;;
12587;SDS011;6359;51.450;7.346;2023-02-01T05:39:45;18.50;;;3.90;;
12587;SDS011;6359;51.450;7.346;2023-02-01T05:42:12;16.35;;;4.00;;
12587;SDS011;6359;51.450;7.346;2023-02-01T05:44:39;14.27;;;3.80;;
12587;SDS011;6359;51.450;7.346;2023-02-01T05:47:06;18.25;;;3.10;;
12587;SDS011;6359;51.450;7.346;2023-02-01T05:49:33;21.80;;;3.83;;
12587;SDS011;6359;51.450;7.346;2023-02-01T05:52:02;16.63;;;3.88;;
12587;SDS011;6359;51.450;7.346;2023-02-01T05:54:29;18.77;;;4.13;;
12587;SDS011;6359;51.450;7.346;2023-02-01T05:56:56;14.40;;;3.33;;
12587;SDS011;6359;51.450;7.346;2023-02-01T05:59:23;17.10;;;3.63;;
12587;SDS011;6359;51.450;7.346;2023-02-01T06:01:50;13.48;;;3.22;;
12587;SDS011;6359;51.450;7.346;2023-02-01T06:04:17;22.15;;;3.88;;
12587;SDS011;6359;51.450;7.346;2023-02-01T06:06:44;24.92;;;4.43;;
12587;SDS011;6359;51.450;7.346;2023-02-01T06:09:13;16.77;;;4.18;;
12587;SDS011;6359;51.450;7.346;2023-02-01T06:11:40;18.00;;;3.72;;
12587;SDS011;6359;51.450;7.346;2023-02-01T06:14:07;9.65;;;3.15;;
12587;SDS011;6359;51.450;7.346;2023-02-01T06:16:34;10.90;;;2.83;;
12587;SDS011;6359;51.450;7.346;2023-02-01T06:19:01;14.27;;;3.00;;
12587;SDS011;6359;51.450;7.346;2023-02-01T06:21:28;14.63;;;3.63;;
12587;SDS011;6359;51.450;7.346;2023-02-01T06:23:55;21.70;;;3.38;;
12587;SDS011;6359;51.450;7.346;2023-02-01T06:26:24;21.55;;;4.30;;
12587;SDS011;6359;51.450;7.346;2023-02-01T06:28:53;27.00;;;4.10;;
12587;SDS011;6359;51.450;7.346;2023-02-01T06:31:20;20.20;;;3.72;;
12587;SDS011;6359;51.450;7.346;2023-02-01T06:33:48;23.33;;;4.55;;
12587;SDS011;6359;51.450;7.346;2023-02-01T06:36:15;17.33;;;4.38;;
12587;SDS011;6359;51.450;7.346;2023-02-01T06:38:43;19.02;;;4.57;;
12587;SDS011;6359;51.450;7.346;2023-02-01T06:41:10;19.27;;;3.97;;
12587;SDS011;6359;51.450;7.346;2023-02-01T06:43:39;17.50;;;3.97;;
12587;SDS011;6359;51.450;7.346;2023-02-01T06:46:06;10.93;;;3.17;;
12587;SDS011;6359;51.450;7.346;2023-02-01T06:48:35;14.27;;;3.80;;
12587;SDS011;6359;51.450;7.346;2023-02-01T06:51:02;17.23;;;4.32;;
12587;SDS011;6359;51.450;7.346;2023-02-01T06:53:30;18.08;;;4.10;;
12587;SDS011;6359;51.450;7.346;2023-02-01T06:55:58;21.13;;;4.55;;
12587;SDS011;6359;51.450;7.346;2023-02-01T06:58:27;17.67;;;3.72;;
12587;SDS011;6359;51.450;7.346;2023-02-01T07:00:56;16.60;;;4.32;;
12587;SDS011;6359;51.450;7.346;2023-02-01T07:03:24;10.95;;;3.20;;
12587;SDS011;6359;51.450;7.346;2023-02-01T07:05:54;20.45;;;3.95;;
12587;SDS011;6359;51.450;7.346;2023-02-01T07:08:23;21.55;;;3.33;;
12587;SDS011;6359;51.450;7.346;2023-02-01T07:10:50;18.45;;;3.90;;
12587;SDS011;6359;51.450;7.346;2023-02-01T07:13:17;22.95;;;4.35;;
12587;SDS011;6359;51.450;7.346;2023-02-01T07:15:44;11.00;;;3.45;;
12587;SDS011;6359;51.450;7.346;2023-02-01T07:18:14;13.98;;;3.65;;
12587;SDS011;6359;51.450;7.346;2023-02-01T07:20:41;15.93;;;3.83;;
12587;SDS011;6359;51.450;7.346;2023-02-01T07:23:08;16.20;;;3.95;;
12587;SDS011;6359;51.450;7.346;2023-02-01T07:25:36;12.63;;;3.35;;
12587;SDS011;6359;51.450;7.346;2023-02-01T07:28:03;13.55;;;3.30;;
12587;SDS011;6359;51.450;7.346;2023-02-01T07:30:30;19.73;;;4.78;;
12587;SDS011;6359;51.450;7.346;2023-02-01T07:32:57;18.23;;;4.28;;
12587;SDS011;6359;51.450;7.346;2023-02-01T07:35:27;11.38;;;3.30;;
12587;SDS011;6359;51.450;7.346;2023-02-01T07:37:56;19.10;;;3.92;;
12587;SDS011;6359;51.450;7.346;2023-02-01T07:40:24;22.70;;;4.53;;
12587;SDS011;6359;51.450;7.346;2023-02-01T07:42:53;18.00;;;3.63;;
12587;SDS011;6359;51.450;7.346;2023-02-01T07:45:21;17.45;;;2.85;;
12587;SDS011;6359;51.450;7.346;2023-02-01T07:47:48;25.83;;;4.40;;
12587;SDS011;6359;51.450;7.346;2023-02-01T07:50:15;22.60;;;4.22;;
12587;SDS011;6359;51.450;7.346;2023-02-01T07:52:44;11.65;;;3.05;;
12587;SDS011;6359;51.450;7.346;2023-02-01T07:55:11;18.20;;;3.92;;
12587;SDS011;6359;51.450;7.346;2023-02-01T07:57:38;18.42;;;4.38;;
12587;SDS011;6359;51.450;7.346;2023-02-01T08:00:05;13.50;;;3.25;;
12587;SDS011;6359;51.450;7.346;2023-02-01T08:02:50;14.50;;;3.78;;
12587;SDS011;6359;51.450;7.346;2023-02-01T08:05:17;18.52;;;4.07;;
12587;SDS011;6359;51.450;7.346;2023-02-01T08:07:45;16.05;;;4.07;;
12587;SDS011;6359;51.450;7.346;2023-02-01T08:10:15;21.60;;;4.03;;
12587;SDS011;6359;51.450;7.346;2023-02-01T08:12:42;7.20;;;3.13;;
12587;SDS011;6359;51.450;7.346;2023-02-01T08:15:12;15.20;;;3.90;;
12587;SDS011;6359;51.450;7.346;2023-02-01T08:17:40;19.77;;;3.85;;
12587;SDS011;6359;51.450;7.346;2023-02-01T08:20:12;22.98;;;4.35;;
12587;SDS011;6359;51.450;7.346;2023-02-01T08:22:39;14.48;;;4.55;;
12587;SDS011;6359;51.450;7.346;2023-02-01T08:25:08;17.15;;;4.40;;
12587;SDS011;6359;51.450;7.346;2023-02-01T08:27:35;23.52;;;4.18;;
12587;SDS011;6359;51.450;7.346;2023-02-01T08:30:03;9.40;;;2.78;;
12587;SDS011;6359;51.450;7.346;2023-02-01T08:32:32;14.10;;;4.25;;
12587;SDS011;6359;51.450;7.346;2023-02-01T08:34:59;20.05;;;3.72;;
12587;SDS011;6359;51.450;7.346;2023-02-01T08:37:26;14.75;;;3.20;;
12587;SDS011;6359;51.450;7.346;2023-02-01T08:39:53;21.90;;;4.43;;
12587;SDS011;6359;51.450;7.346;2023-02-01T08:42:22;21.73;;;4.65;;
12587;SDS011;6359;51.450;7.346;2023-02-01T08:45:07;17.17;;;3.83;;
12587;SDS011;6359;51.450;7.346;2023-02-01T08:47:35;18.13;;;4.57;;
12587;SDS011;6359;51.450;7.346;2023-02-01T08:50:02;16.95;;;4.38;;
12587;SDS011;6359;51.450;7.346;2023-02-01T08:52:29;12.60;;;3.80;;
12587;SDS011;6359;51.450;7.346;2023-02-01T08:54:56;17.95;;;4.10;;
12587;SDS011;6359;51.450;7.346;2023-02-01T08:57:25;15.75;;;4.22;;
12587;SDS011;6359;51.450;7.346;2023-02-01T08:59:52;20.42;;;3.97;;
12587;SDS011;6359;51.450;7.346;2023-02-01T09:02:19;25.05;;;4.43;;
12587;SDS011;6359;51.450;7.346;2023-02-01T09:04:46;17.27;;;4.38;;
12587;SDS011;6359;51.450;7.346;2023-02-01T09:07:13;10.77;;;3.42;;
12587;SDS011;6359;51.450;7.346;2023-02-01T09:09:41;13.07;;;3.80;;
12587;SDS011;6359;51.450;7.346;2023-02-01T09:12:08;17.73;;;3.97;;
12587;SDS011;6359;51.450;7.346;2023-02-01T09:14:37;16.08;;;4.07;;
12587;SDS011;6359;51.450;7.346;2023-02-01T09:17:04;25.60;;;4.78;;
12587;SDS011;6359;51.450;7.346;2023-02-01T09:19:31;20.60;;;4.10;;
12587;SDS011;6359;51.450;7.346;2023-02-01T09:21:59;17.08;;;3.90;;
12587;SDS011;6359;51.450;7.346;2023-02-01T09:24:26;17.00;;;4.00;;
12587;SDS011;6359;51.450;7.346;2023-02-01T09:26:53;19.80;;;5.10;;
12587;SDS011;6359;51.450;7.346;2023-02-01T09:29:20;21.60;;;4.07;;
12587;SDS011;6359;51.450;7.346;2023-02-01T09:31:49;15.43;;;3.97;;
12587;SDS011;6359;51.450;7.346;2023-02-01T09:34:16;18.85;;;4.75;;
12587;SDS011;6359;51.450;7.346;2023-02-01T09:36:43;11.10;;;3.53;;
12587;SDS011;6359;51.450;7.346;2023-02-01T09:39:09;15.50;;;4.38;;
12587;SDS011;6359;51.450;7.346;2023-02-01T09:41:39;16.95;;;4.25;;
12587;SDS011;6359;51.450;7.346;2023-02-01T09:44:18;18.17;;;4.55;;
12587;SDS011;6359;51.450;7.346;2023-02-01T09:46:58;11.52;;;3.75;;
12587;SDS011;6359;51.450;7.346;2023-02-01T09:49:27;20.40;;;4.20;;
12587;SDS011;6359;51.450;7.346;2023-02-01T09:51:56;24.27;;;5.53;;
12587;SDS011;6359;51.450;7.346;2023-02-01T09:54:25;19.35;;;3.78;;
12587;SDS011;6359;51.450;7.346;2023-02-01T09:56:56;14.43;;;4.20;;
12587;SDS011;6359;51.450;7.346;2023-02-01T09:59:32;16.88;;;4.30;;
12587;SDS011;6359;51.450;7.346;2023-02-01T10:02:10;19.13;;;4.97;;
12587;SDS011;6359;51.450;7.346;2023-02-01T10:04:40;15.95;;;4.18;;
12587;SDS011;6359;51.450;7.346;2023-02-01T10:07:13;18.13;;;4.93;;
12587;SDS011;6359;51.450;7.346;2023-02-01T10:09:50;17.15;;;4.35;;
12587;SDS011;6359;51.450;7.346;2023-02-01T10:12:31;22.90;;;4.65;;
12587;SDS011;6359;51.450;7.346;2023-02-01T10:15:17;19.00;;;4.97;;
12587;SDS011;6359;51.450;7.346;2023-02-01T10:18:04;22.02;;;5.03;;
12587;SDS011;6359;51.450;7.346;2023-02-01T10:20:49;8.95;;;3.80;;
12587;SDS011;6359;51.450;7.346;2023-02-01T10:23:36;12.07;;;3.60;;
12587;SDS011;6359;51.450;7.346;2023-02-01T10:26:12;11.73;;;3.75;;
12587;SDS011;6359;51.450;7.346;2023-02-01T10:28:44;21.60;;;4.15;;
12587;SDS011;6359;51.450;7.346;2023-02-01T10:31:14;21.23;;;4.80;;
12587;SDS011;6359;51.450;7.346;2023-02-01T10:33:44;14.80;;;5.18;;
12587;SDS011;6359;51.450;7.346;2023-02-01T10:36:16;14.55;;;3.80;;
12587;SDS011;6359;51.450;7.346;2023-02-01T10:38:48;18.73;;;4.50;;
12587;SDS011;6359;51.450;7.346;2023-02-01T10:41:16;10.30;;;3.42;;
12587;SDS011;6359;51.450;7.346;2023-02-01T10:43:45;13.60;;;4.13;;
12587;SDS011;6359;51.450;7.346;2023-02-01T10:46:16;20.45;;;4.43;;
12587;SDS011;6359;51.450;7.346;2023-02-01T10:48:44;21.10;;;4.47;;
12587;SDS011;6359;51.450;7.346;2023-02-01T10:51:13;14.77;;;3.80;;
12587;SDS011;6359;51.450;7.346;2023-02-01T10:53:47;23.02;;;4.70;;
12587;SDS011;6359;51.450;7.346;2023-02-01T10:56:21;14.43;;;3.28;;
12587;SDS011;6359;51.450;7.346;2023-02-01T10:58:49;10.50;;;3.78;;
12587;SDS011;6359;51.450;7.346;2023-02-01T11:01:17;22.77;;;4.72;;
12587;SDS011;6359;51.450;7.346;2023-02-01T11:03:52;16.65;;;3.97;;
12587;SDS011;6359;51.450;7.346;2023-02-01T11:06:26;17.38;;;3.78;;
12587;SDS011;6359;51.450;7.346;2023-02-01T11:08:55;20.10;;;4.82;;
12587;SDS011;6359;51.450;7.346;2023-02-01T11:11:24;16.08;;;4.32;;
12587;SDS011;6359;51.450;7.346;2023-02-01T11:13:52;14.98;;;3.75;;
12587;SDS011;6359;51.450;7.346;2023-02-01T11:16:21;13.77;;;3.70;;
12587;SDS011;6359;51.450;7.346;2023-02-01T11:18:57;12.45;;;3.42;;
12587;SDS011;6359;51.450;7.346;2023-02-01T11:21:25;17.27;;;4.45;;
12587;SDS011;6359;51.450;7.346;2023-02-01T11:23:53;21.40;;;4.57;;
12587;SDS011;6359;51.450;7.346;2023-02-01T11:26:21;12.25;;;3.85;;
12587;SDS011;6359;51.450;7.346;2023-02-01T11:28:54;15.77;;;4.22;;
12587;SDS011;6359;51.450;7.346;2023-02-01T11:31:25;14.77;;;3.97;;
12587;SDS011;6359;51.450;7.346;2023-02-01T11:33:54;16.17;;;4.30;;
12587;SDS011;6359;51.450;7.346;2023-02-01T11:36:26;16.23;;;3.90;;
12587;SDS011;6359;51.450;7.346;2023-02-01T11:39:07;14.48;;;4.15;;
12587;SDS011;6359;51.450;7.346;2023-02-01T11:41:43;7.63;;;2.83;;
12587;SDS011;6359;51.450;7.346;2023-02-01T11:44:30;21.83;;;4.60;;
12587;SDS011;6359;51.450;7.346;2023-02-01T11:49:50;15.43;;;3.85;;
12587;SDS011;6359;51.450;7.346;2023-02-01T11:52:23;15.70;;;4.53;;
12587;SDS011;6359;51.450;7.346;2023-02-01T11:55:12;15.65;;;4.28;;
12587;SDS011;6359;51.450;7.346;2023-02-01T11:57:55;13.25;;;3.92;;
12587;SDS011;6359;51.450;7.346;2023-02-01T12:00:44;10.20;;;3.60;;
12587;SDS011;6359;51.450;7.346;2023-02-01T12:06:26;23.88;;;4.35;;
12587;SDS011;6359;51.450;7.346;2023-02-01T12:11:55;21.00;;;4.05;;
12587;SDS011;6359;51.450;7.346;2023-02-01T12:14:36;19.52;;;4.32;;
12587;SDS011;6359;51.450;7.346;2023-02-01T12:17:18;15.80;;;3.67;;
12587;SDS011;6359;51.450;7.346;2023-02-01T12:20:15;20.02;;;4.60;;
12587;SDS011;6359;51.450;7.346;2023-02-01T12:22:59;15.77;;;4.28;;
12587;SDS011;6359;51.450;7.346;2023-02-01T12:25:40;15.02;;;4.22;;
12587;SDS011;6359;51.450;7.346;2023-02-01T12:28:32;18.60;;;3.55;;
12587;SDS011;6359;51.450;7.346;2023-02-01T12:31:13;10.80;;;3.00;;
12587;SDS011;6359;51.450;7.346;2023-02-01T12:34:02;22.42;;;4.97;;
12587;SDS011;6359;51.450;7.346;2023-02-01T12:36:46;11.02;;;3.33;;
12587;SDS011;6359;51.450;7.346;2023-02-01T12:39:19;13.93;;;4.28;;
12587;SDS011;6359;51.450;7.346;2023-02-01T12:41:54;18.80;;;4.57;;
12587;SDS011;6359;51.450;7.346;2023-02-01T12:44:30;17.15;;;4.53;;
12587;SDS011;6359;51.450;7.346;2023-02-01T12:47:04;14.32;;;4.28;;
12587;SDS011;6359;51.450;7.346;2023-02-01T12:49:41;11.20;;;3.80;;
12587;SDS011;6359;51.450;7.346;2023-02-01T12:52:18;10.93;;;3.60;;
12587;SDS011;6359;51.450;7.346;2023-02-01T12:54:53;21.13;;;5.50;;
12587;SDS011;6359;51.450;7.346;2023-02-01T12:57:25;15.00;;;3.83;;
12587;SDS011;6359;51.450;7.346;2023-02-01T12:59:56;13.77;;;3.10;;
12587;SDS011;6359;51.450;7.346;2023-02-01T13:02:28;23.80;;;4.38;;
12587;SDS011;6359;51.450;7.346;2023-02-01T13:05:04;21.15;;;4.38;;
12587;SDS011;6359;51.450;7.346;2023-02-01T13:07:41;20.85;;;3.72;;
12587;SDS011;6359;51.450;7.346;2023-02-01T13:10:15;7.32;;;2.08;;
12587;SDS011;6359;51.450;7.346;2023-02-01T13:12:47;16.75;;;3.63;;
12587;SDS011;6359;51.450;7.346;2023-02-01T13:15:19;8.45;;;2.83;;
12587;SDS011;6359;51.450;7.346;2023-02-01T13:17:51;10.13;;;3.03;;
12587;SDS011;6359;51.450;7.346;2023-02-01T13:20:21;17.35;;;3.92;;
12587;SDS011;6359;51.450;7.346;2023-02-01T13:22:54;17.67;;;3.65;;
12587;SDS011;6359;51.450;7.346;2023-02-01T13:25:28;21.38;;;3.95;;
12587;SDS011;6359;51.450;7.346;2023-02-01T13:28:00;14.43;;;3.88;;
12587;SDS011;6359;51.450;7.346;2023-02-01T13:30:34;17.55;;;3.97;;
12587;SDS011;6359;51.450;7.346;2023-02-01T13:33:22;13.82;;;3.65;;
12587;SDS011;6359;51.450;7.346;2023-02-01T13:36:17;9.73;;;3.05;;
12587;SDS011;6359;51.450;7.346;2023-02-01T13:42:04;16.10;;;2.92;;
12587;SDS011;6359;51.450;7.346;2023-02-01T13:44:42;8.73;;;2.50;;
12587;SDS011;6359;51.450;7.346;2023-02-01T13:47:13;9.25;;;2.90;;
12587;SDS011;6359;51.450;7.346;2023-02-01T13:49:48;7.63;;;2.47;;
12587;SDS011;6359;51.450;7.346;2023-02-01T13:55:26;13.50;;;2.58;;
12587;SDS011;6359;51.450;7.346;2023-02-01T13:58:05;14.45;;;2.47;;
12587;SDS011;6359;51.450;7.346;2023-02-01T14:00:39;15.38;;;2.03;;
12587;SDS011;6359;51.450;7.346;2023-02-01T14:03:09;11.93;;;2.08;;
12587;SDS011;6359;51.450;7.346;2023-02-01T14:06:00;10.48;;;2.50;;
12587;SDS011;6359;51.450;7.346;2023-02-01T14:08:42;16.98;;;3.10;;
12587;SDS011;6359;51.450;7.346;2023-02-01T14:11:36;16.30;;;3.10;;
12587;SDS011;6359;51.450;7.346;2023-02-01T14:23:25;12.10;;;3.72;;
12587;SDS011;6359;51.450;7.346;2023-02-01T14:28:53;15.95;;;3.08;;
12587;SDS011;6359;51.450;7.346;2023-02-01T14:31:37;17.63;;;2.53;;
12587;SDS011;6359;51.450;7.346;2023-02-01T14:37:08;12.40;;;3.47;;
12587;SDS011;6359;51.450;7.346;2023-02-01T14:39:46;11.93;;;3.72;;
12587;SDS011;6359;51.450;7.346;2023-02-01T14:42:22;12.05;;;2.85;;
12587;SDS011;6359;51.450;7.346;2023-02-01T14:44:52;8.13;;;2.42;;
12587;SDS011;6359;51.450;7.346;2023-02-01T14:53:12;20.65;;;3.72;;
12587;SDS011;6359;51.450;7.346;2023-02-01T14:55:46;14.23;;;2.90;;
12587;SDS011;6359;51.450;7.346;2023-02-01T14:58:19;16.98;;;4.20;;
12587;SDS011;6359;51.450;7.346;2023-02-01T15:00:56;14.82;;;3.45;;
12587;SDS011;6359;51.450;7.346;2023-02-01T15:03:47;14.20;;;3.75;;
12587;SDS011;6359;51.450;7.346;2023-02-01T15:06:28;20.25;;;3.42;;
12587;SDS011;6359;51.450;7.346;2023-02-01T15:08:59;14.82;;;3.17;;
12587;SDS011;6359;51.450;7.346;2023-02-01T15:11:28;14.10;;;3.33;;
12587;SDS011;6359;51.450;7.346;2023-02-01T15:13:55;13.50;;;3.13;;
12587;SDS011;6359;51.450;7.346;2023-02-01T15:16:25;24.88;;;3.50;;
12587;SDS011;6359;51.450;7.346;2023-02-01T15:19:09;18.35;;;4.32;;
12587;SDS011;6359;51.450;7.346;2023-02-01T15:21:46;18.73;;;3.60;;
12587;SDS011;6359;51.450;7.346;2023-02-01T15:24:21;11.70;;;2.78;;
12587;SDS011;6359;51.450;7.346;2023-02-01T15:26:49;17.73;;;3.28;;
12587;SDS011;6359;51.450;7.346;2023-02-01T15:29:16;17.25;;;3.22;;
12587;SDS011;6359;51.450;7.346;2023-02-01T15:31:45;18.63;;;3.65;;
12587;SDS011;6359;51.450;7.346;2023-02-01T15:34:14;17.60;;;3.40;;
12587;SDS011;6359;51.450;7.346;2023-02-01T15:36:41;14.32;;;3.72;;
12587;SDS011;6359;51.450;7.346;2023-02-01T15:39:18;6.40;;;2.65;;
12587;SDS011;6359;51.450;7.346;2023-02-01T15:41:52;17.15;;;3.13;;
12587;SDS011;6359;51.450;7.346;2023-02-01T15:44:28;7.07;;;2.28;;
12587;SDS011;6359;51.450;7.346;2023-02-01T15:46:58;12.77;;;3.05;;
12587;SDS011;6359;51.450;7.346;2023-02-01T15:49:28;12.57;;;3.28;;
12587;SDS011;6359;51.450;7.346;2023-02-01T15:51:56;13.77;;;3.08;;
12587;SDS011;6359;51.450;7.346;2023-02-01T15:54:27;14.73;;;2.67;;
12587;SDS011;6359;51.450;7.346;2023-02-01T15:56:57;18.77;;;3.30;;
12587;SDS011;6359;51.450;7.346;2023-02-01T15:59:28;14.77;;;3.30;;
12587;SDS011;6359;51.450;7.346;2023-02-01T16:01:58;12.82;;;3.03;;